• Join FlightAware (Why Join?)
  • Login
  • US Flag 
Rudolph Flight #1: Arrived! 
02:34PM EST


 

Airport Tracker/Info


-or-


 

Live Flight TrackerFlight Track Log ✈ SWA2975 ✈ 28-Jun-2013 ✈ KMDW - KALB

Flight Track Log - Related Links

Times and Time Zones

All times are in EDT time to prevent confusion due to time zone crossing. See the SWA2975 flight status page for this flight to view local times or setup timezone preferences in your user account.

Time Position Orientation Groundspeed Altitude Reporting Facility
EDT Latitude Longitude Course Direction KTS MPH feet Rate Location/Type
10:52PM 41.8050 -87.7780 330° Northwest 174 200 2,300  Level FlightAware
10:53PM 41.8140 -87.7810 346° North 189 217 2,600 1,560 Climbing FlightAware
10:53PM 41.8290 -87.7720 24° Northeast 226 260 3,100 1,500 Climbing FlightAware
10:53PM 41.8360 -87.7560 60° Northeast 234 269 3,400 300 Climbing FlightAware
10:54PM 41.8310 -87.7160 100° East 232 267 3,300 -120 Descending FlightAware
10:54PM 41.8220 -87.6780 108° East 228 262 3,300 720 Level FlightAware
10:54PM 41.8230 -87.6370 88° East 263 303 4,000 2,280 Climbing FlightAware
10:55PM 41.8230 -87.5970 90° East 275 316 5,300 3,360 Climbing FlightAware
10:56PM 41.8060 -87.4410 98° East 300 345 10,200 2,760 Climbing FlightAware
10:58PM 41.7820 -87.2350 99° East 363 418 14,300 2,280 Climbing FlightAware
10:59PM 41.7680 -87.1170 99° East 388 447 16,200 2,100 Climbing FlightAware
11:04PM 41.7680 -86.3820 90° East 451 519 26,000 1,980 Climbing FlightAware
11:04PM 41.7800 -86.2530 83° East 453 521 27,300 1,500 Climbing FlightAware
11:05PM 41.7990 -86.1390 77° East 459 528 28,300 1,440 Climbing FlightAware
11:06PM 41.8190 -86.0210 77° East 463 533 29,300 1,620 Climbing FlightAware
11:07PM 41.8400 -85.8990 77° East 458 527 30,700 1,860 Climbing FlightAware
11:07PM 41.8580 -85.7950 77° East 451 519 31,900 1,560 Climbing FlightAware
11:08PM 41.8790 -85.6720 77° East 450 518 32,900 1,260 Climbing FlightAware
11:09PM 41.8980 -85.5570 77° East 450 518 33,800 1,020 Climbing FlightAware
11:09PM 41.9170 -85.4370 78° East 456 525 34,400 600 Climbing FlightAware
11:10PM 41.9320 -85.3460 77° East 465 535 34,600 240 Climbing FlightAware
11:11PM 41.9510 -85.1400 83° East 468 539 35,000 120 Climbing FlightAware
11:12PM 41.9500 -84.9250 90° East 470 541 35,000  Level FlightAware
11:13PM 41.9500 -84.7900 90° East 471 542 35,000  Level FlightAware
11:14PM 41.9720 -84.6360 79° East 471 542 35,000  Level FlightAware
11:15PM 41.9940 -84.4540 81° East 470 541 35,000  Level FlightAware
11:16PM 42.0070 -84.3340 82° East 467 537 35,000  Level FlightAware
11:17PM 42.0260 -84.1720 81° East 463 533 35,000  Level FlightAware
11:18PM 42.0410 -84.0410 81° East 463 533 35,000  Level FlightAware
11:18PM 42.0550 -83.9210 81° East 462 532 35,000  Level FlightAware
11:19PM 42.0680 -83.8100 81° East 461 531 35,000  Level FlightAware
11:20PM 42.0810 -83.6940 81° East 460 529 35,000  Level FlightAware
11:20PM 42.0940 -83.5710 82° East 458 527 35,000  Level FlightAware
11:21PM 42.1080 -83.4460 81° East 458 527 35,000  Level FlightAware
11:22PM 42.1220 -83.3220 81° East 458 527 35,000  Level FlightAware
11:22PM 42.1340 -83.2100 82° East 458 527 35,000  Level FlightAware
11:23PM 42.1450 -83.0990 82° East 457 526 35,000  Level FlightAware
11:24PM 42.1580 -82.9750 82° East 456 525 35,000  Level FlightAware
11:25PM 42.1710 -82.8570 82° East 453 521 35,000  Level FlightAware
11:25PM 42.1820 -82.7510 82° East 451 519 35,000  Level FlightAware
11:26PM 42.1950 -82.6190 82° East 449 517 35,000  Level FlightAware
11:27PM 42.2040 -82.5280 82° East 448 516 35,000  Level FlightAware
11:27PM 42.2180 -82.3910 82° East 444 511 35,000  Level FlightAware
11:28PM 42.2300 -82.2750 82° East 442 509 35,000  Level FlightAware
11:29PM 42.2400 -82.1690 83° East 443 510 35,000  Level FlightAware
11:30PM 42.2530 -82.0410 82° East 444 511 35,000  Level FlightAware
11:30PM 42.2660 -81.9050 83° East 445 512 35,000  Level FlightAware
11:31PM 42.2760 -81.7890 83° East 445 512 35,000  Level FlightAware
11:32PM 42.2860 -81.6830 83° East 445 512 35,000  Level FlightAware
11:32PM 42.2970 -81.5700 82° East 444 511 35,000  Level FlightAware
11:33PM 42.3100 -81.4270 83° East 443 510 35,000  Level FlightAware
11:34PM 42.3230 -81.2880 83° East 444 511 35,000  Level FlightAware
11:35PM 42.3360 -81.1400 83° East 443 510 35,000  Level FlightAware
11:36PM 42.3450 -81.0350 83° East 443 510 35,000  Level FlightAware
11:36PM 42.3560 -80.9080 83° East 444 511 35,000  Level FlightAware
11:37PM 42.3660 -80.8030 83° East 445 512 35,000  Level FlightAware
11:38PM 42.3760 -80.6830 84° East 446 513 35,000  Level FlightAware
11:39PM 42.3860 -80.5630 84° East 447 514 35,000  Level FlightAware
11:39PM 42.3970 -80.4290 84° East 450 518 35,000  Level FlightAware
11:40PM 42.4050 -80.3250 84° East 451 519 35,000  Level FlightAware
11:41PM 42.4160 -80.1910 84° East 451 519 35,000  Level FlightAware
11:41PM 42.4250 -80.0740 84° East 452 520 35,000  Level FlightAware
11:42PM 42.4350 -79.9500 84° East 453 521 35,000  Level FlightAware
11:43PM 42.4430 -79.8460 84° East 455 524 35,000  Level FlightAware
11:43PM 42.4530 -79.7170 84° East 458 527 35,000  Level FlightAware
11:44PM 42.4620 -79.5930 84° East 462 532 35,000  Level FlightAware
11:45PM 42.4690 -79.4960 84° East 465 535 35,000  Level FlightAware
11:45PM 42.4790 -79.3600 84° East 470 541 35,000  Level FlightAware
11:46PM 42.4890 -79.2230 84° East 476 548 35,000  Level FlightAware
11:47PM 42.4980 -79.1030 84° East 480 552 35,000  Level FlightAware
11:48PM 42.5070 -78.9740 85° East 478 550 35,000  Level FlightAware
11:48PM 42.5150 -78.8550 85° East 476 548 35,000  Level FlightAware
11:49PM 42.5230 -78.7300 85° East 474 545 35,000  Level FlightAware
11:50PM 42.5310 -78.6160 85° East 478 550 35,000  Level FlightAware
11:50PM 42.5400 -78.4750 85° East 478 550 35,000  Level FlightAware
11:51PM 42.5480 -78.3560 85° East 476 548 35,000  Level FlightAware
11:52PM 42.5560 -78.2270 85° East 476 548 35,000  Level FlightAware
11:53PM 42.5630 -78.1060 85° East 479 551 35,000  Level FlightAware
11:53PM 42.5700 -77.9920 85° East 479 551 35,000  Level FlightAware
11:54PM 42.5790 -77.8500 85° East 482 555 35,000  Level FlightAware
11:55PM 42.5860 -77.7360 85° East 484 557 35,000  Level FlightAware
11:55PM 42.5920 -77.6220 86° East 487 560 35,000  Level FlightAware
11:56PM 42.6010 -77.4680 85° East 489 563 35,000 -420 Level FlightAware
11:57PM 42.6070 -77.3460 86° East 485 558 34,400 -960 Descending FlightAware
11:57PM 42.6150 -77.2120 85° East 485 558 33,700 -960 Descending FlightAware
11:58PM 42.6220 -77.0920 85° East 482 555 33,100 -1,020 Descending FlightAware
11:59PM 42.6290 -76.9530 86° East 491 565 32,300 -1,140 Descending FlightAware
11:59PM 42.6340 -76.8440 86° East 494 568 31,600 -1,440 Descending FlightAware
12:00AM 42.6420 -76.7000 86° East 498 573 30,400 -1,620 Descending FlightAware
12:01AM 42.6480 -76.5630 87° East 504 580 29,200 -1,320 Descending FlightAware
12:02AM 42.6540 -76.4370 86° East 505 581 28,600 -960 Descending FlightAware
12:02AM 42.6600 -76.3030 86° East 508 585 27,900 -1,200 Descending FlightAware
12:03AM 42.6660 -76.1760 86° East 504 580 27,000 -1,800 Descending FlightAware
12:04AM 42.6720 -76.0440 86° East 489 563 25,500 -1,800 Descending FlightAware
12:04AM 42.6770 -75.9130 87° East 469 540 24,500 -1,260 Descending FlightAware
12:05AM 42.6820 -75.7970 87° East 460 529 23,800 -1,380 Descending FlightAware
12:06AM 42.6870 -75.6830 87° East 450 518 22,700 -1,680 Descending FlightAware
12:06AM 42.6910 -75.5690 87° East 441 507 21,600 -1,620 Descending FlightAware
12:07AM 42.6960 -75.4420 87° East 439 505 20,400 -1,560 Descending FlightAware
12:08AM 42.7010 -75.3230 87° East 429 494 19,300 -1,500 Descending FlightAware
12:09AM 42.7050 -75.2130 87° East 421 484 18,300 -1,500 Descending FlightAware
12:09AM 42.7080 -75.1140 88° East 412 474 17,300 -1,560 Descending FlightAware
12:10AM 42.7120 -74.9990 87° East 408 470 16,200 -1,140 Descending FlightAware
12:11AM 42.7180 -74.8620 87° East 400 460 15,400 -840 Descending FlightAware
12:12AM 42.7200 -74.7810 88° East 397 457 14,900 -360 Descending FlightAware
12:12AM 42.7240 -74.6840 87° East 397 457 14,900 -2,580 Level FlightAware
12:13AM 42.7247 -74.5486 87° East 386 444 11,200 -3,600 Descending Boston Center
12:14AM 42.7281 -74.4836 86° East 373 429 10,600 -1,020 Descending Boston Center
12:14AM 42.7292 -74.4214 89° East 372 428 10,200 -1,140 Descending Boston Center
12:15AM 42.7344 -74.3453 85° East 338 389 9,500 -1,080 Descending Boston Center
12:16AM 42.7156 -74.2372 103° East 286 329 8,600 -1,140 Descending Boston Center
12:17AM 42.6772 -74.1431 119° Southeast 273 314 7,300 -1,440 Descending Boston Center
12:18AM 42.6411 -74.0517 118° Southeast 276 318 5,700 -1,200 Descending Boston Center
12:19AM 42.5792 -74.0106 154° Southeast 248 285 5,000 -720 Descending Boston Center
12:20AM 42.5131 -73.9611 151° Southeast 223 257 4,200 -660 Descending Boston Center
12:20AM 42.5050 -73.9467 127° Southeast 235 270 4,000 -180 Descending Boston Center
12:21AM 42.4919 -73.8394 99° East 228 262 4,000 -420 Level Boston Center
12:22AM 42.5422 -73.7983 31° Northeast 167 192 3,200 -780 Descending Boston Center
12:23AM 42.5653 -73.7989 359° North 202 232 2,900 -240 Descending Boston Center
12:23AM 42.5903 -73.7994 359° North 152 175 3,000 -420 Climbing Boston Center
12:24AM 42.6194 -73.8000 359° North 182 209 2,500 -900 Descending Boston Center
12:24AM 42.6422 -73.8033 354° North 165 190 2,100 -1,020 Descending Boston Center
12:25AM 42.6714 -73.8039 359° North 176 203 1,500 -900 Descending Boston Center
12:26AM 42.7069 -73.8047 359° North 152 175 900 -720 Descending Boston Center